createdAt,value
2023-03-12T00:00:43.229Z,77.53
2023-03-12T00:03:46.064Z,77.53
2023-03-12T00:06:48.428Z,77.86
2023-03-12T00:09:51.079Z,77.44
2023-03-12T00:12:53.479Z,76.75
2023-03-12T00:15:56.145Z,76.44
2023-03-12T00:18:58.486Z,76.35
2023-03-12T00:22:01.239Z,76.06
2023-03-12T00:25:04.497Z,76.42
2023-03-12T00:28:07.081Z,76.97
2023-03-12T00:31:17.591Z,76.80
2023-03-12T00:34:20.549Z,77.38
2023-03-12T00:37:22.986Z,76.48
2023-03-12T00:40:25.711Z,76.43
2023-03-12T00:43:28.056Z,75.86
2023-03-12T00:46:30.735Z,75.41
2023-03-12T00:49:33.085Z,75.83
2023-03-12T00:52:36.296Z,74.39
2023-03-12T00:55:38.693Z,74.39
2023-03-12T00:58:42.877Z,74.10
2023-03-12T01:01:45.586Z,73.50
2023-03-12T01:04:48.390Z,73.37
2023-03-12T01:07:50.859Z,69.05
2023-03-12T01:10:53.759Z,67.37
2023-03-12T01:13:56.072Z,67.38
2023-03-12T01:16:58.730Z,67.28
2023-03-12T01:20:01.891Z,66.86
2023-03-12T01:23:04.779Z,66.41
2023-03-12T01:26:07.266Z,66.57
2023-03-12T01:29:10.289Z,66.90
2023-03-12T01:32:12.782Z,67.02
2023-03-12T01:35:15.461Z,67.34
2023-03-12T01:38:19.179Z,67.40
2023-03-12T01:41:23.174Z,65.90
2023-03-12T01:44:25.726Z,65.41
2023-03-12T01:47:31.971Z,65.79
2023-03-12T01:50:34.763Z,66.02
2023-03-12T01:53:38.382Z,66.32
2023-03-12T01:56:41.579Z,67.06
2023-03-12T01:59:56.740Z,67.05
2023-03-12T02:03:03.003Z,66.79
2023-03-12T02:06:13.265Z,67.24
2023-03-12T02:09:20.266Z,67.38
2023-03-12T02:12:23.400Z,68.27
2023-03-12T02:15:25.809Z,68.65
2023-03-12T02:18:28.578Z,68.51
2023-03-12T02:21:34.094Z,68.75
2023-03-12T02:24:39.469Z,69.81
2023-03-12T02:27:42.302Z,70.62
2023-03-12T02:30:47.205Z,70.91
2023-03-12T02:33:50.028Z,72.14
2023-03-12T02:36:53.731Z,73.69
2023-03-12T02:40:00.271Z,74.97
2023-03-12T02:43:05.911Z,75.97
2023-03-12T02:46:09.220Z,77.55
2023-03-12T02:49:13.346Z,78.54
2023-03-12T02:52:15.788Z,79.03
2023-03-12T02:55:18.586Z,79.19
2023-03-12T02:58:21.324Z,80.12
2023-03-12T03:01:24.556Z,80.24
2023-03-12T03:04:28.117Z,81.37
2023-03-12T03:07:30.937Z,82.69
2023-03-12T03:10:33.396Z,83.50
2023-03-12T03:13:36.614Z,84.91
2023-03-12T03:16:39.125Z,86.44
2023-03-12T03:19:41.946Z,87.42
2023-03-12T03:22:46.142Z,87.76
2023-03-12T03:25:48.725Z,88.71
2023-03-12T03:28:51.334Z,89.42
2023-03-12T03:31:54.070Z,89.25
2023-03-12T03:34:56.593Z,90.03
2023-03-12T03:38:00.107Z,90.20
2023-03-12T03:41:03.316Z,90.53
2023-03-12T03:44:07.961Z,91.95
2023-03-12T03:47:11.011Z,91.65
2023-03-12T03:50:13.796Z,91.50
2023-03-12T03:53:16.201Z,91.84
2023-03-12T03:56:19.151Z,91.76
2023-03-12T03:59:21.611Z,92.41
2023-03-12T04:02:25.806Z,92.92
2023-03-12T04:05:28.505Z,93.77
2023-03-12T04:08:32.454Z,93.85
2023-03-12T04:11:35.082Z,94.04
2023-03-12T04:14:39.534Z,94.00
2023-03-12T04:17:42.318Z,94.68
2023-03-12T04:20:45.064Z,95.47
2023-03-12T04:23:47.939Z,95.82
2023-03-12T04:26:51.692Z,96.73
2023-03-12T04:29:54.602Z,97.33
2023-03-12T04:32:57.236Z,97.93
2023-03-12T04:36:00.191Z,99.27
2023-03-12T04:39:07.051Z,99.23
2023-03-12T04:42:10.042Z,100.00
2023-03-12T04:45:12.607Z,100.00
2023-03-12T04:48:16.143Z,100.00
2023-03-12T04:51:19.388Z,100.00
2023-03-12T04:54:22.539Z,100.00
2023-03-12T04:57:25.275Z,100.00
2023-03-12T05:00:28.238Z,100.00
2023-03-12T05:03:30.577Z,100.00
2023-03-12T05:06:33.465Z,100.00
2023-03-12T05:09:35.811Z,100.00
2023-03-12T05:12:38.965Z,100.00
2023-03-12T05:15:41.462Z,100.00
2023-03-12T05:18:45.040Z,100.00
2023-03-12T05:21:47.537Z,100.00
2023-03-12T05:24:50.242Z,100.00
2023-03-12T05:27:52.821Z,100.00
2023-03-12T05:30:56.162Z,100.00
2023-03-12T05:33:59.084Z,100.00
2023-03-12T05:37:01.975Z,100.00
2023-03-12T05:40:05.092Z,100.00
2023-03-12T05:43:07.878Z,99.55
2023-03-12T05:46:10.746Z,99.75
2023-03-12T05:49:13.686Z,99.75
2023-03-12T05:52:16.138Z,99.71
2023-03-12T05:55:19.191Z,99.25
2023-03-12T05:58:21.641Z,99.28
2023-03-12T06:01:26.047Z,98.50
2023-03-12T06:04:29.488Z,97.38
2023-03-12T06:07:31.851Z,96.93
2023-03-12T06:10:34.725Z,95.94
2023-03-12T06:13:37.561Z,95.10
2023-03-12T06:16:40.645Z,94.28
2023-03-12T06:19:43.989Z,90.69
2023-03-12T06:22:46.758Z,63.75
2023-03-12T06:25:49.950Z,50.00
2023-03-12T06:28:52.665Z,43.32
2023-03-12T06:31:56.113Z,36.92
2023-03-12T06:35:00.848Z,34.08
2023-03-12T06:38:03.283Z,36.75
2023-03-12T06:41:13.490Z,33.24
2023-03-12T06:44:16.219Z,32.32
2023-03-12T06:47:18.812Z,35.23
2023-03-12T06:50:21.353Z,38.26
2023-03-12T06:53:25.838Z,43.04
2023-03-12T06:56:29.267Z,45.61
2023-03-12T06:59:31.929Z,42.99
2023-03-12T07:02:34.335Z,45.04
2023-03-12T07:05:37.063Z,41.96
2023-03-12T07:08:39.395Z,41.13
2023-03-12T07:11:42.059Z,45.37
2023-03-12T07:14:44.620Z,46.57
2023-03-12T07:17:47.296Z,45.08
2023-03-12T07:20:49.680Z,44.80
2023-03-12T07:23:52.603Z,42.99
2023-03-12T07:26:54.977Z,42.66
2023-03-12T07:29:57.882Z,45.25
2023-03-12T07:33:11.194Z,49.18
2023-03-12T07:36:14.205Z,46.62
2023-03-12T07:39:16.804Z,45.33
2023-03-12T07:42:19.539Z,48.30
2023-03-12T07:45:22.886Z,50.04
2023-03-12T07:48:25.702Z,49.03
2023-03-12T07:51:28.496Z,48.15
2023-03-12T07:54:31.187Z,49.60
2023-03-12T07:57:33.760Z,51.11
2023-03-12T08:00:36.619Z,53.03
2023-03-12T08:03:39.712Z,52.43
2023-03-12T08:06:42.842Z,51.73
2023-03-12T08:09:45.885Z,49.95
2023-03-12T08:12:48.336Z,47.87
2023-03-12T08:15:51.806Z,45.24
2023-03-12T08:18:54.390Z,44.52
2023-03-12T08:21:58.073Z,42.61
2023-03-12T08:25:01.308Z,39.32
2023-03-12T08:28:04.418Z,39.25
2023-03-12T08:31:07.313Z,40.97
2023-03-12T08:34:10.272Z,38.81
2023-03-12T08:37:12.634Z,36.50
2023-03-12T08:40:15.642Z,35.57
2023-03-12T08:43:18.180Z,31.24
2023-03-12T08:46:20.850Z,32.90
2023-03-12T08:49:23.702Z,38.25
2023-03-12T08:52:26.479Z,39.80
2023-03-12T08:55:29.009Z,41.71
2023-03-12T08:58:31.751Z,45.91
2023-03-12T09:01:34.347Z,47.73
2023-03-12T09:04:37.141Z,48.14
2023-03-12T09:07:39.768Z,48.35
2023-03-12T09:10:48.973Z,47.52
2023-03-12T09:14:15.265Z,48.21
2023-03-12T09:17:14.078Z,48.20
2023-03-12T09:20:16.693Z,46.87
2023-03-12T09:23:20.060Z,47.92
2023-03-12T09:26:22.525Z,46.70
2023-03-12T09:29:25.395Z,46.59
2023-03-12T09:32:28.253Z,47.25
2023-03-12T09:35:31.634Z,46.11
2023-03-12T09:38:35.571Z,46.84
2023-03-12T09:41:39.980Z,46.10
2023-03-12T09:44:44.592Z,45.95
2023-03-12T09:47:49.412Z,44.87
2023-03-12T09:50:52.316Z,45.04
2023-03-12T09:53:57.267Z,44.05
2023-03-12T09:57:02.924Z,44.04
2023-03-12T10:00:08.201Z,43.43
2023-03-12T10:03:16.560Z,43.18
2023-03-12T10:06:24.967Z,44.86
2023-03-12T10:09:45.894Z,41.91
2023-03-12T10:12:52.041Z,41.27
2023-03-12T10:16:17.757Z,41.06
2023-03-12T10:19:28.207Z,40.32
2023-03-12T10:22:39.917Z,40.16
2023-03-12T10:25:46.120Z,38.81
2023-03-12T10:28:51.583Z,38.89
2023-03-12T10:31:54.352Z,38.81
2023-03-12T10:34:59.390Z,38.05
2023-03-12T10:38:03.467Z,38.10
2023-03-12T10:41:14.494Z,38.35
2023-03-12T10:44:20.144Z,37.84
2023-03-12T10:47:25.467Z,39.11
2023-03-12T10:50:30.639Z,37.26
2023-03-12T10:53:36.357Z,37.11
2023-03-12T10:56:50.993Z,37.04
2023-03-12T11:00:06.596Z,36.52
2023-03-12T11:03:27.978Z,36.91
2023-03-12T11:06:30.760Z,35.33
2023-03-12T11:09:33.397Z,35.63
2023-03-12T11:12:37.229Z,35.97
2023-03-12T11:15:41.167Z,35.33
2023-03-12T11:18:57.244Z,35.51
2023-03-12T11:22:08.294Z,34.26
2023-03-12T11:25:19.805Z,33.33
2023-03-12T11:28:24.475Z,34.00
2023-03-12T11:31:44.401Z,34.48
2023-03-12T11:34:49.820Z,34.47
2023-03-12T11:38:07.644Z,34.79
2023-03-12T11:41:13.105Z,33.63
2023-03-12T11:44:18.540Z,33.71
2023-03-12T11:47:26.999Z,34.24
2023-03-12T11:50:49.309Z,33.48
2023-03-12T11:53:57.652Z,32.90
2023-03-12T11:57:12.082Z,32.28
2023-03-12T12:00:17.367Z,32.57
2023-03-12T12:03:26.666Z,32.00
2023-03-12T12:06:48.355Z,31.55
2023-03-12T12:09:57.223Z,31.23
2023-03-12T12:13:06.473Z,29.99
2023-03-12T12:16:21.083Z,30.24
2023-03-12T12:19:26.481Z,29.98
2023-03-12T12:22:47.389Z,30.03
2023-03-12T12:25:49.820Z,28.85
2023-03-12T12:28:59.218Z,28.11
2023-03-12T12:32:02.142Z,28.74
2023-03-12T12:35:14.914Z,28.68
2023-03-12T12:38:30.270Z,28.30
2023-03-12T12:41:35.751Z,28.42
2023-03-12T12:44:43.707Z,28.60
2023-03-12T12:47:49.116Z,27.36
2023-03-12T12:50:52.173Z,27.87
2023-03-12T12:54:03.108Z,27.13
2023-03-12T12:57:11.416Z,27.26
2023-03-12T13:00:20.481Z,27.04
2023-03-12T13:03:24.717Z,27.59
2023-03-12T13:06:29.112Z,26.09
2023-03-12T13:09:39.414Z,26.01
2023-03-12T13:12:48.022Z,26.12
2023-03-12T13:15:50.792Z,25.57
2023-03-12T13:19:01.413Z,26.25
2023-03-12T13:22:13.820Z,26.33
2023-03-12T13:25:19.449Z,26.19
2023-03-12T13:28:32.561Z,25.09
2023-03-12T13:31:36.902Z,25.03
2023-03-12T13:34:45.646Z,25.05
2023-03-12T13:37:51.064Z,26.72
2023-03-12T13:40:55.361Z,28.32
2023-03-12T13:43:58.575Z,28.12
2023-03-12T13:47:03.055Z,28.76
2023-03-12T13:50:08.233Z,28.91
2023-03-12T13:53:16.665Z,27.95
2023-03-12T13:56:20.581Z,28.03
2023-03-12T13:59:24.417Z,27.25
2023-03-12T14:02:30.242Z,27.35
2023-03-12T14:05:43.142Z,26.92
2023-03-12T14:08:45.422Z,26.38
2023-03-12T14:12:06.344Z,26.31
2023-03-12T14:15:15.556Z,26.64
2023-03-12T14:18:23.098Z,26.76
2023-03-12T14:21:30.601Z,26.50
2023-03-12T14:24:35.427Z,25.83
2023-03-12T14:27:37.872Z,26.47
2023-03-12T14:30:49.656Z,27.01
2023-03-12T14:34:17.147Z,26.75
2023-03-12T14:37:25.751Z,26.66
2023-03-12T14:40:35.635Z,25.51
2023-03-12T14:43:38.383Z,24.68
2023-03-12T14:46:46.105Z,25.47
2023-03-12T14:49:48.830Z,24.90
2023-03-12T14:52:51.736Z,24.86
2023-03-12T14:56:10.165Z,25.11
2023-03-12T14:59:24.508Z,24.91
2023-03-12T15:02:30.178Z,25.40
2023-03-12T15:05:34.744Z,25.10
2023-03-12T15:08:39.677Z,25.21
2023-03-12T15:11:42.673Z,25.72
2023-03-12T15:14:53.327Z,25.88
2023-03-12T15:17:56.016Z,25.58
2023-03-12T15:21:01.696Z,26.03
2023-03-12T15:24:04.155Z,25.94
2023-03-12T15:27:22.254Z,26.24
2023-03-12T15:30:26.065Z,25.83
2023-03-12T15:33:28.687Z,26.64
2023-03-12T15:36:32.226Z,26.98
2023-03-12T15:39:37.265Z,27.85
2023-03-12T15:42:44.173Z,28.26
2023-03-12T15:45:47.806Z,28.18
2023-03-12T15:48:51.992Z,28.80
2023-03-12T15:52:03.782Z,28.96
2023-03-12T15:55:09.904Z,29.14
2023-03-12T15:58:32.894Z,29.44
2023-03-12T16:01:46.261Z,29.41
2023-03-12T16:04:49.020Z,29.48
2023-03-12T16:07:51.584Z,29.93
2023-03-12T16:10:55.565Z,30.17
2023-03-12T16:14:03.973Z,30.13
2023-03-12T16:17:13.397Z,30.68
2023-03-12T16:20:17.790Z,30.93
2023-03-12T16:23:20.777Z,30.16
2023-03-12T16:26:23.159Z,29.81
2023-03-12T16:29:31.174Z,29.48
2023-03-12T16:32:34.518Z,29.78
2023-03-12T16:35:37.335Z,30.20
2023-03-12T16:38:39.828Z,30.24
2023-03-12T16:41:42.738Z,31.46
2023-03-12T16:44:46.326Z,32.03
2023-03-12T16:47:53.420Z,31.46
2023-03-12T16:50:57.787Z,30.67
2023-03-12T16:54:09.729Z,30.80
2023-03-12T16:57:21.179Z,32.09
2023-03-12T17:00:25.926Z,32.70
2023-03-12T17:03:28.199Z,32.79
2023-03-12T17:06:31.257Z,32.65
2023-03-12T17:09:34.767Z,32.86
2023-03-12T17:12:38.856Z,33.31
2023-03-12T17:15:41.168Z,33.63
2023-03-12T17:18:43.950Z,33.65
2023-03-12T17:21:47.116Z,34.47
2023-03-12T17:24:49.736Z,34.55
2023-03-12T17:27:52.782Z,35.00
2023-03-12T17:30:55.818Z,35.35
2023-03-12T17:33:58.774Z,35.81
2023-03-12T17:37:02.470Z,36.40
2023-03-12T17:40:08.324Z,36.56
2023-03-12T17:43:11.275Z,36.80
2023-03-12T17:46:13.853Z,37.84
2023-03-12T17:49:16.626Z,37.78
2023-03-12T17:52:19.141Z,38.04
2023-03-12T17:55:21.796Z,38.33
2023-03-12T17:58:24.384Z,38.23
2023-03-12T18:01:27.339Z,39.07
2023-03-12T18:04:29.974Z,39.57
2023-03-12T18:07:32.378Z,39.91
2023-03-12T18:10:37.028Z,40.26
2023-03-12T18:13:40.977Z,40.50
2023-03-12T18:16:47.503Z,41.01
2023-03-12T18:19:49.961Z,41.24
2023-03-12T18:22:52.932Z,42.44
2023-03-12T18:25:55.375Z,41.90
2023-03-12T18:28:59.487Z,43.32
2023-03-12T18:32:01.995Z,43.12
2023-03-12T18:35:05.358Z,42.66
2023-03-12T18:38:08.434Z,43.66
2023-03-12T18:41:15.144Z,43.73
2023-03-12T18:44:17.419Z,44.58
2023-03-12T18:47:20.166Z,45.44
2023-03-12T18:50:23.538Z,46.00
2023-03-12T18:53:26.306Z,45.61
2023-03-12T18:56:28.824Z,45.79
2023-03-12T18:59:32.496Z,46.69
2023-03-12T19:02:35.629Z,46.96
2023-03-12T19:05:38.738Z,46.97
2023-03-12T19:08:41.635Z,47.38
2023-03-12T19:11:46.010Z,47.80
2023-03-12T19:14:48.443Z,48.27
2023-03-12T19:17:51.154Z,49.19
2023-03-12T19:20:53.702Z,49.41
2023-03-12T19:23:57.054Z,49.57
2023-03-12T19:26:59.502Z,49.63
2023-03-12T19:30:02.378Z,50.33
2023-03-12T19:33:06.215Z,51.08
2023-03-12T19:36:09.462Z,51.22
2023-03-12T19:39:21.129Z,52.89
2023-03-12T19:42:24.222Z,53.86
2023-03-12T19:45:26.920Z,54.33
2023-03-12T19:48:30.017Z,55.64
2023-03-12T19:51:32.534Z,56.86
2023-03-12T19:54:35.263Z,56.68
2023-03-12T19:57:39.087Z,57.47
2023-03-12T20:00:43.474Z,57.02
2023-03-12T20:03:46.104Z,57.25
2023-03-12T20:06:48.539Z,57.14
2023-03-12T20:09:51.821Z,56.61
2023-03-12T20:12:54.289Z,57.30
2023-03-12T20:15:56.981Z,57.68
2023-03-12T20:18:59.508Z,60.71
2023-03-12T20:22:02.454Z,58.49
2023-03-12T20:25:05.744Z,58.63
2023-03-12T20:28:10.864Z,58.13
2023-03-12T20:31:14.788Z,59.71
2023-03-12T20:34:17.519Z,60.61
2023-03-12T20:37:19.899Z,61.48
2023-03-12T20:40:22.619Z,62.75
2023-03-12T20:43:25.120Z,62.43
2023-03-12T20:46:27.833Z,62.23
2023-03-12T20:49:30.308Z,63.89
2023-03-12T20:52:33.276Z,60.42
2023-03-12T20:55:39.316Z,60.65
2023-03-12T20:58:42.323Z,60.95
2023-03-12T21:01:44.935Z,61.94
2023-03-12T21:04:49.424Z,60.66
2023-03-12T21:07:52.537Z,60.92
2023-03-12T21:10:55.690Z,61.06
2023-03-12T21:13:58.448Z,61.26
2023-03-12T21:17:01.140Z,62.18
2023-03-12T21:20:10.717Z,60.80
2023-03-12T21:23:15.065Z,60.73
2023-03-12T21:26:18.645Z,58.43
2023-03-12T21:29:21.459Z,57.79
2023-03-12T21:32:23.945Z,56.04
2023-03-12T21:35:26.657Z,56.34
2023-03-12T21:38:28.988Z,56.13
2023-03-12T21:41:31.867Z,54.57
2023-03-12T21:44:34.814Z,54.20
2023-03-12T21:47:37.778Z,53.45
2023-03-12T21:50:41.706Z,52.70
2023-03-12T21:53:44.572Z,52.70
2023-03-12T21:56:46.914Z,50.96
2023-03-12T21:59:49.591Z,50.19
2023-03-12T22:02:52.934Z,50.46
2023-03-12T22:05:55.520Z,50.78
2023-03-12T22:08:58.677Z,50.63
2023-03-12T22:12:01.883Z,51.39
2023-03-12T22:15:05.476Z,51.65
2023-03-12T22:18:08.204Z,51.95
2023-03-12T22:21:18.220Z,52.37
2023-03-12T22:24:20.830Z,52.02
2023-03-12T22:27:23.768Z,52.05
2023-03-12T22:30:27.229Z,51.76
2023-03-12T22:33:29.589Z,50.91
2023-03-12T22:36:32.236Z,51.28
2023-03-12T22:39:34.681Z,50.78
2023-03-12T22:42:41.031Z,51.16
2023-03-12T22:45:43.413Z,50.81
2023-03-12T22:48:46.546Z,51.10
2023-03-12T22:51:49.047Z,50.92
2023-03-12T22:54:51.692Z,51.38
2023-03-12T22:57:54.152Z,51.08
2023-03-12T23:01:00.014Z,51.32
2023-03-12T23:04:04.069Z,51.66
2023-03-12T23:07:14.017Z,51.53
2023-03-12T23:10:18.465Z,51.13
2023-03-12T23:13:21.334Z,51.16
2023-03-12T23:16:25.469Z,51.26
2023-03-12T23:19:32.382Z,51.14
2023-03-12T23:22:35.412Z,51.44
2023-03-12T23:25:38.225Z,51.59
2023-03-12T23:28:40.529Z,52.25
2023-03-12T23:31:43.153Z,52.54
2023-03-12T23:34:45.578Z,52.69
2023-03-12T23:37:49.032Z,52.93
2023-03-12T23:40:52.698Z,52.68
2023-03-12T23:43:56.002Z,53.28
2023-03-12T23:46:58.326Z,53.23
2023-03-12T23:50:01.086Z,54.22
2023-03-12T23:53:03.566Z,54.32
2023-03-12T23:56:07.941Z,54.16
2023-03-12T23:59:10.981Z,54.38
